Storden, Minnesota
Current Conditions -  °F | °C
As of 5:13 AM on Saturday 25 Oct 2014 (Local Time) from KMWM Reporting Station
Clear Clear  
Wind Chill: 55°   Ceiling: Unl
Heat Index: 55°   Visibility: 10mi
Dew Point: 36°   Wind: 13mph
Humidity: 47%   Direction: 320°NW
Pressure: 30.05"   Gusts: NA
Location:  44.04°N, 95.32°W
Report Text: KMWM 251013Z AUTO 32011KT 10SM CLR 13/02 A3005 RMK AO2
Loading
Personal Weather Stations






























Interactive Weather Map
Tropical Storm Tracking
New forecast layout! Learn more

10-Day Weather Forecast

Advertisements
Track Severe Weather on mobile